| Record Date MM/DD/YYYY | Record Julian Date NNN day of the year | Air Temperature Max (Degrees Fahrenheit F) | Time Max Air Temperature HH:MM:SS This is the time of max air temperature standard time. | Air Temperature Min (Degrees Fahrenheit F) | Time Min Air Temperature HH:MM:SS This is the time of min air temperature standard time. | Air Temperature Observed (Degrees Fahrenheit F) This is an instantaneous reading for air temperature at 7:00:00 standard time. | Relative Humidity Max (Percent) | Time Max Relative Humidity HH:MM:SS This is the time of max relative humidity standard time. | Relative Humidity Min (Percent) | Time Min Relative Humidity HH:MM:SS This is the time of min relative humidity standard time. | Relative Humidity Observed (Percent) This is an instantaneous reading at 7:00:00 standard time. | Precipitation (Inches n.nn) total rain fall that occurred for the day. | Pan Evaporation (Inches n.nn) total evaporation that occured for the day. | Wind Run (Miles) Wind travel for the day. | Wind Speed (Miles Per Hour) Resultant / Average speed for the day. | Wind Direction (Degrees) Resultant Direction for the day | Solar Radiation (Langley's) that occurred for the day. | Soil Temperature Max at 2 inch depth (Degrees Fahrenheit F) that occurred during the day. | Time Max Soil temperature at 2 inches HH:MM:SS This is the time of max 2 inch soil temperature standard time. | Soil Temperature Min at 2 inch depth (Degrees Fahrenheit F) that occurred during the day. | Time Min Soil temperature at 2 inches HH:MM:SS This is the time of min 2 inch soil temperature standard time. | Soil Temperature Observed at 2 inch depth (Degrees Fahrenheit F) This is an instantaneous reading 2 inch soil temperature at 7:00:00 standard time. | Soil Temperature Max at 4 inch depth (Degrees Fahrenheit F) that occurred during the day. | Time Max Soil temperature at 4 inches HH:MM:SS This is the time of max 4 inch soil temperature standard time. | Soil Temperature Min at 4 inch depth (Degrees Fahrenheit F) that occurred during the day. | Time Min Soil temperature at 4 inches HH:MM:SS This is the time of min 4 inch soil temperature standard time. | Soil Temperature Observed at 4 inch depth (Degrees Fahrenheit F) This is an instantaneous reading 4 inch soil temperature at 7:00:00 standard time. | DD50 Degree Days 50 Fahrenheit. | Adjusted DD50 Degree Days 50 Fahrenheit adjusted for latitude. | DD60 Degree Days 60 Fahrenheit. |
|---|---|---|---|---|---|---|---|---|---|---|---|---|---|---|---|---|---|---|---|---|---|---|---|---|---|---|---|---|---|---|
| 08/04/2026 | 216 | 91 | 14:48:03 | 64 | 5:19:02 | 75 | 99 | 5:56:03 | 43 | 14:42:03 | 86 | 0 | 30 | 1.3 | 25 | 602 | 82 | 16:15:05 | 77 | 6:43:04 | 77 | 81 | 17:17:02 | 78 | 7:28:03 | 78 | 27.5 | 27.08 | 17.5 | |
| 08/05/2026 | 217 | 94 | 14:05:05 | 65 | 5:17:05 | 76 | 98 | 5:45:04 | 42 | 11:58:04 | 81 | 0 | 29 | 1.2 | 42 | 612 | 83 | 16:04:04 | 77 | 6:49:04 | 77 | 82 | 17:53:02 | 78 | 7:38:05 | 78 | 29.5 | 27.05 | 19.5 | |
| 08/06/2026 | 218 | 97 | 14:27:01 | 66 | 5:01:05 | 79 | 98 | 5:40:02 | 32 | 13:03:04 | 80 | 0 | 33 | 1.4 | 90 | 621 | 84 | 16:18:04 | 77 | 6:37:05 | 77 | 82 | 17:34:02 | 78 | 7:19:02 | 78 | 31.5 | 27.01 | 21.5 | |
| 08/07/2026 | 219 | 96 | 13:47:00 | 73 | 0:49:03 | 78 | 95 | 5:39:02 | 51 | 14:31:00 | 86 | 0 | 60 | 2.5 | 201 | 477 | 84 | 15:12:01 | 78 | 6:33:00 | 78 | 83 | 15:34:01 | 79 | 7:16:04 | 79 | 34.5 | 26.98 | 24.5 | |
| 08/08/2026 | 220 | 94 | 10:33:04 | 72 | 12:55:03 | 78 | 96 | 1:46:00 | 54 | 10:44:05 | 85 | 0.98 | 55 | 2.3 | 149 | 392 | 83 | 12:23:03 | 79 | 6:35:05 | 79 | 82 | 13:12:03 | 79 | 7:17:01 | 79 | 33 | 26.95 | 23 | |
| 08/09/2026 | 221 | 96 | 15:56:00 | 71 | 5:04:00 | 78 | 98 | 5:38:03 | 47 | 15:33:05 | 86 | 0 | 67 | 2.8 | 173 | 595 | 85 | 16:15:01 | 79 | 6:45:02 | 79 | 84 | 17:31:01 | 79 | 7:09:04 | 79 | 33.5 | 26.92 | 23.5 | |
| 08/10/2026 | 222 | 98 | 15:41:02 | 73 | 5:19:03 | 80 | 96 | 22:44:02 | 46 | 15:49:05 | 84 | 0.39 | 54 | 2.3 | 182 | 573 | 86 | 16:30:04 | 80 | 6:46:02 | 80 | 85 | 17:16:02 | 80 | 7:43:02 | 80 | 35.5 | 26.88 | 25.5 | |
| 08/11/2026 | 223 | 96 | 14:23:00 | 73 | 4:45:03 | 79 | 97 | 0:48:05 | 53 | 14:21:05 | 87 | 0 | 73 | 3.1 | 206 | 603 | 86 | 16:07:01 | 80 | 6:49:04 | 80 | 85 | 17:09:02 | 81 | 7:54:01 | 81 | 34.5 | 26.85 | 24.5 | |
| 08/12/2026 | 224 | 98 | 15:08:04 | 76 | 3:50:02 | 81 | 89 | 3:50:03 | 45 | 14:37:01 | 80 | 0 | 98 | 4.1 | 212 | 602 | 87 | 16:40:05 | 81 | 7:01:03 | 81 | 85 | 17:22:00 | 81 | 8:08:04 | 81 | 37 | 26.81 | 27 | |
| 08/13/2026 | 225 | 99 | 15:45:05 | 77 | 5:10:03 | 82 | 86 | 5:26:01 | 44 | 15:48:02 | 79 | 0 | 87 | 3.6 | 203 | 540 | 87 | 16:24:02 | 81 | 7:15:04 | 81 | 85 | 17:32:04 | 82 | 7:46:03 | 82 | 38 | 26.78 | 28 | |
| 08/14/2026 | 226 | 99 | 14:57:00 | 75 | 5:34:03 | 82 | 90 | 5:51:02 | 42 | 15:03:04 | 77 | 0 | 67 | 2.8 | 214 | 586 | 87 | 16:12:03 | 81 | 6:46:05 | 81 | 86 | 17:03:04 | 82 | 7:43:05 | 82 | 37 | 26.75 | 27 | |
| 08/15/2026 | 227 | 100 | 14:35:03 | 72 | 5:26:03 | 79 | 91 | 5:54:04 | 35 | 14:36:00 | 80 | 0 | 54 | 2.2 | 220 | 615 | 87 | 15:40:01 | 81 | 7:10:02 | 81 | 86 | 17:13:01 | 81 | 8:03:03 | 81 | 36 | 26.71 | 26 | |
| 08/16/2026 | 228 | 104 | 13:55:04 | 74 | 5:17:01 | 83 | 92 | 3:14:02 | 37 | 13:56:01 | 77 | 0 | 54 | 2.2 | 238 | 578 | 87 | 15:51:03 | 81 | 6:45:03 | 81 | 86 | 17:09:01 | 82 | 7:32:00 | 82 | 39 | 26.68 | 29 | |
| 08/17/2026 | 229 | 101 | 13:10:04 | 73 | 23:21:03 | 84 | 98 | 23:58:01 | 43 | 11:38:02 | 73 | 0.79 | 78 | 3.3 | 263 | 540 | 86 | 14:32:03 | 82 | 7:03:02 | 82 | 85 | 16:13:00 | 82 | 7:40:00 | 82 | 37 | 26.64 | 27 | |
| 08/18/2026 | 230 | 96 | 14:45:04 | 73 | 4:28:05 | 78 | 99 | 4:44:01 | 48 | 16:20:05 | 87 | 0 | 42 | 1.8 | 49 | 552 | 86 | 15:59:01 | 80 | 7:07:00 | 80 | 85 | 16:48:02 | 81 | 7:42:05 | 81 | 34.5 | 26.61 | 24.5 | |
| 08/19/2026 | 231 | 100 | 16:03:00 | 74 | 1:17:05 | 82 | 96 | 1:32:03 | 40 | 16:03:05 | 79 | 0 | 71 | 3.0 | 169 | 510 | 86 | 15:51:01 | 81 | 6:52:01 | 81 | 85 | 17:01:05 | 81 | 7:31:04 | 81 | 37 | 26.57 | 27 | |
| 08/20/2026 | 232 | 100 | 15:53:00 | 76 | 23:59:05 | 83 | 94 | 23:55:05 | 41 | 13:44:04 | 75 | 0.05 | 78 | 3.2 | 245 | 516 | 86 | 14:53:01 | 81 | 6:47:04 | 81 | 85 | 16:58:05 | 81 | 7:33:02 | 82 | 38 | 26.54 | 28 | |
| 08/21/2026 | 233 | 95 | 13:27:01 | 70 | 23:43:00 | 75 | 99 | 6:25:00 | 38 | 15:31:05 | 93 | 0.34 | 56 | 2.3 | 5 | 554 | 85 | 14:44:04 | 80 | 7:10:05 | 80 | 84 | 16:05:02 | 81 | 7:55:00 | 81 | 32.5 | 26.5 | 22.5 | |
| 08/22/2026 | 234 | 99 | 14:25:02 | 67 | 5:01:02 | 77 | 99 | 5:54:01 | 40 | 11:18:04 | 85 | 0.02 | 55 | 2.3 | 318 | 482 | 85 | 15:12:04 | 79 | 6:42:02 | 79 | 84 | 16:15:05 | 80 | 7:49:03 | 80 | 33 | 26.47 | 23 | |
| 08/23/2026 | 235 | 93 | 14:04:01 | 68 | 5:23:02 | 75 | 99 | 6:04:00 | 46 | 13:41:02 | 86 | 0 | 51 | 2.1 | 40 | 607 | 85 | 15:42:05 | 79 | 7:03:00 | 79 | 84 | 16:36:00 | 80 | 7:58:00 | 80 | 30.5 | 26.43 | 20.5 | |
| 08/24/2026 | 236 | 92 | 13:55:04 | 70 | 1:07:04 | 75 | 95 | 23:54:05 | 45 | 11:40:02 | 80 | 0 | 55 | 2.3 | 217 | 536 | 84 | 16:21:02 | 79 | 6:41:04 | 79 | 83 | 17:16:04 | 80 | 8:35:03 | 80 | 31 | 26.4 | 21 | |
| 08/25/2026 | 237 | 95 | 14:12:01 | 72 | 5:42:02 | 75 | 96 | 4:29:04 | 48 | 14:14:02 | 85 | 0 | 50 | 2.1 | 189 | 454 | 84 | 16:17:04 | 80 | 7:04:01 | 80 | 83 | 17:47:00 | 80 | 7:55:00 | 80 | 33.5 | 26.36 | 23.5 | |
| 08/26/2026 | 238 | 94 | 12:00:02 | 74 | 23:47:04 | 82 | 92 | 3:28:03 | 56 | 12:03:03 | 80 | 0 | 67 | 2.8 | 182 | 347 | 84 | 15:21:05 | 80 | 6:51:02 | 80 | 83 | 16:23:02 | 80 | 7:28:05 | 80 | 34 | 26.33 | 24 | |
| 08/27/2026 | 239 | 95 | 16:08:04 | 72 | 2:14:02 | 74 | 99 | 6:59:04 | 38 | 16:06:04 | 99 | 0 | 49 | 2.0 | 3 | 427 | 84 | 14:40:00 | 80 | 7:00:00 | 80 | 83 | 17:00:02 | 80 | 8:09:00 | 80 | 33.5 | 26.29 | 23.5 | |
| 08/28/2026 | 240 | 93 | 14:07:01 | 66 | 23:59:05 | 75 | 94 | 5:57:04 | 34 | 14:41:03 | 80 | 0 | 61 | 2.5 | 18 | 571 | 83 | 15:28:02 | 79 | 7:07:04 | 79 | 82 | 16:16:02 | 79 | 8:03:03 | 79 | 29.5 | 26.26 | 19.5 | |
| 08/29/2026 | 241 | 95 | 13:39:05 | 60 | 5:46:03 | 73 | 98 | 5:56:02 | 26 | 14:57:01 | 81 | 0 | 40 | 1.7 | 67 | 601 | 83 | 15:19:03 | 76 | 6:47:05 | 76 | 81 | 17:06:04 | 77 | 7:23:05 | 77 | 27.5 | 26.22 | 17.5 | |
| 08/30/2026 | 242 | 97 | 14:23:02 | 66 | 5:37:05 | 79 | 96 | 5:43:01 | 43 | 14:12:05 | 79 | 0 | 72 | 3.0 | 144 | 525 | 84 | 16:26:04 | 77 | 6:24:00 | 77 | 82 | 16:47:03 | 78 | 7:33:05 | 78 | 31.5 | 26.19 | 21.5 | |
| 08/31/2026 | 243 | 99 | 13:15:05 | 70 | 3:09:02 | 81 | 98 | 5:42:04 | 42 | 13:15:05 | 81 | 0 | 55 | 2.3 | 124 | 513 | 84 | 14:37:04 | 78 | 6:48:02 | 78 | 83 | 16:49:02 | 78 | 7:26:04 | 79 | 34.5 | 26.15 | 24.5 | |
| 09/01/2026 | 244 | 100 | 14:28:01 | 71 | 5:23:02 | 80 | 97 | 5:39:00 | 34 | 15:30:01 | 86 | 0 | 48 | 0.2 | 119 | 558 | 85 | 14:58:02 | 79 | 6:52:00 | 79 | 84 | 16:48:03 | 79 | 7:43:02 | 79 | 35.5 | 26.12 | 25.5 | |
| 09/02/2026 | 245 | 100 | 12:50:04 | 72 | 5:11:04 | 82 | 94 | 5:21:00 | 38 | 14:58:03 | 77 | 0 | 43 | 1.8 | 115 | 430 | 84 | 15:27:00 | 79 | 6:41:00 | 79 | 83 | 15:56:05 | 80 | 7:20:04 | 80 | 36 | 26.08 | 26 | |
| Average | 96.87 | 70.83 | 78.67 | 95.6 | 42.37 | 82.47 | 0.09 | 57.73 | 537.3 | 84.87 | 79.37 | 79.37 | 83.7 | 79.9 | 79.97 | 33.85 | 26.59 | 23.85 | ||||||||||||
| Total | 2.57 | 1015.5 | 797.61 | 715.5 |